aviador You're here:

KADF Decoded Metar

in
Report Time2018-04-24 01:56:00
UTC Time2018-04-24 02:26:10
Flight Rules vfr VFR
WindCalm
Visibility9999 m
Phenomena:N/A
Clouds:Overcast 070 Hf
Expected CloudBase > 2,000 ft AGL from Temp-Dew spread
Ceiling7,000 ft
Temp19°C
Dew Point14°C (73% RH)
QNH1014 hPa
Raw Report
KADF 240156Z AUTO 00000KT 10SM OVC070 19/14 A2995 RMK AO2 SLP145
T01890139=

Extra information for KADF:More info

Social comments